logo tempoitalia

Diretta Meteo Newton, Stati Uniti (USA)lunedì 31 agosto ore 00:56

Mappa
Sereno 29 °C Sereno 24 Ore: T.min 26 T.max 41
Ponente Sud Km/h 22.2 Punto di rugiada: 15 °C Umidità: 42% Visibilità: 10 Km
Il sole sorge alle: 06:58 Il sole tramonta alle: 20:00
31 Agosto 2026 00:56 tempo osservato: Sereno Sereno 29 42 1013 vento: Nord S 22.2
30 Agosto 2026 23:56 tempo osservato: Sereno Sereno 31 37 1012 vento: Nord S 25.9
30 Agosto 2026 22:56 tempo osservato: Sereno Sereno 31 40 1012 vento: Nord S 25.9
30 Agosto 2026 21:56 tempo osservato: Sereno Sereno 32 35 1012 vento: Nord S/SE 20.3
30 Agosto 2026 20:56 tempo osservato: Sereno Sereno 33 36 1011 vento: Nord S 20.3
30 Agosto 2026 19:56 tempo osservato: Sereno Sereno 35 34 1010 vento: Nord S 25.9
30 Agosto 2026 18:56 tempo osservato: Sereno Sereno 38 27 1010 vento: Nord S 25.9
30 Agosto 2026 17:56 tempo osservato: Sereno Sereno 39 26 1010 vento: Nord S 31.5
30 Agosto 2026 16:56 tempo osservato: Sereno Sereno 40 24 1010 vento: Nord S/SO 37
30 Agosto 2026 15:56 tempo osservato: Sereno Sereno 41 23 1010 vento: Nord S/SO 40.7
30 Agosto 2026 14:56 tempo osservato: Sereno Sereno 40 26 1011 vento: Nord S/SO 35.2
30 Agosto 2026 13:56 tempo osservato: Sereno Sereno 38 29 1011 vento: Nord S/SO 40.7
30 Agosto 2026 12:56 tempo osservato: Sereno Sereno 37 32 1012 vento: Nord S/SO 42.6
30 Agosto 2026 11:56 tempo osservato: Sereno Sereno 36 34 1012 vento: Nord S 44.4
30 Agosto 2026 10:56 tempo osservato: Sereno Sereno 33 41 1012 vento: Nord S 42.6
30 Agosto 2026 09:56 tempo osservato: Sereno Sereno 31 43 1013 vento: Nord S/SO 40.7
30 Agosto 2026 08:56 tempo osservato: Sereno Sereno 29 45 1014 vento: Nord S 31.5
30 Agosto 2026 07:56 tempo osservato: Sereno Sereno 27 50 1014 vento: Nord S 27.8
30 Agosto 2026 06:56 tempo osservato: Sereno Sereno 26 54 1013 vento: Nord S 24
30 Agosto 2026 05:56 tempo osservato: Sereno Sereno 27 50 1013 vento: Nord S 22.2
30 Agosto 2026 04:56 tempo osservato: Sereno Sereno 28 45 1013 vento: Nord S 27.8
30 Agosto 2026 03:56 tempo osservato: Sereno Sereno 29 42 1013 vento: Nord S/SO 33.3
30 Agosto 2026 02:56 tempo osservato: Sereno Sereno 28 45 1013 vento: Nord S 29.6
30 Agosto 2026 01:56 tempo osservato: Sereno Sereno 28 48 1013 vento: Nord S 24